Time;durP1;ratioP1;P1;durP2;ratioP2;P2;SDS_P1;SDS_P2;PMS_P1;PMS_P2;Temp;Humidity;BMP_temperature;BMP_pressure;BME280_temperature;BME280_humidity;BME280_pressure;Samples;Min_cycle;Max_cycle;Signal;HPM_P1;HPM_P2
2021/06/14 00:01:11;;;;;;;11.30;4.32;;;;;;;22.65;45.47;102190.13;5044703;28;20036;-68
2021/06/14 00:03:37;;;;;;;6.60;4.18;;;;;;;22.64;45.47;102196.66;5061897;28;20119;-67
2021/06/14 00:06:02;;;;;;;7.35;3.97;;;;;;;22.60;45.59;102195.69;5060303;28;20028;-69
2021/06/14 00:08:28;;;;;;;4.50;3.90;;;;;;;22.55;45.36;102190.47;5062705;28;20514;-69
2021/06/14 00:10:54;;;;;;;6.60;4.90;;;;;;;22.57;45.58;102191.72;5042439;28;20089;-69
2021/06/14 00:13:20;;;;;;;5.80;4.15;;;;;;;22.58;45.80;102185.19;5065716;28;20166;-69
2021/06/14 00:15:45;;;;;;;5.82;3.92;;;;;;;22.61;45.04;102183.72;5065313;28;20123;-70
2021/06/14 00:18:11;;;;;;;6.43;4.10;;;;;;;22.59;45.18;102175.94;5027755;28;20051;-70
2021/06/14 00:20:37;;;;;;;5.57;4.00;;;;;;;22.60;45.15;102176.72;5031762;28;20035;-70
2021/06/14 00:23:09;;;;;;;4.97;3.90;;;;;;;22.55;45.43;102175.00;5065040;28;20036;-70
2021/06/14 00:25:34;;;;;;;4.50;4.10;;;;;;;22.54;45.88;102178.06;5048110;28;20639;-70
2021/06/14 00:28:01;;;;;;;4.50;4.10;;;;;;;22.49;45.33;102173.59;5047780;28;20040;-70
2021/06/14 00:30:29;;;;;;;6.45;4.13;;;;;;;22.51;45.38;102170.59;5046350;28;20557;-70
2021/06/14 00:32:54;;;;;;;4.05;3.65;;;;;;;22.48;45.44;102169.34;5048550;28;20037;-70
2021/06/14 00:35:20;;;;;;;6.00;4.07;;;;;;;22.48;45.64;102171.25;5064165;28;20033;-70
2021/06/14 00:37:45;;;;;;;6.32;4.30;;;;;;;22.47;45.59;102170.44;5065971;28;20032;-70
2021/06/14 00:40:11;;;;;;;4.93;4.20;;;;;;;22.45;45.76;102169.97;5063919;28;20344;-70
2021/06/14 00:42:36;;;;;;;6.30;4.00;;;;;;;22.47;45.45;102162.31;5047879;28;20041;-70
2021/06/14 00:45:05;;;;;;;4.25;3.90;;;;;;;22.42;45.45;102160.59;5065034;28;20131;-70
2021/06/14 00:47:31;;;;;;;8.43;4.53;;;;;;;22.40;45.89;102160.13;5063906;28;20035;-70
2021/06/14 00:49:56;;;;;;;4.05;3.72;;;;;;;22.38;45.84;102148.81;5064508;28;20041;-69
2021/06/14 00:52:21;;;;;;;4.53;4.13;;;;;;;22.38;45.53;102148.03;5065257;28;20513;-68
2021/06/14 00:54:47;;;;;;;4.30;4.00;;;;;;;22.34;46.13;102147.13;5064101;28;20048;-68
2021/06/14 00:57:12;;;;;;;6.28;4.00;;;;;;;22.39;45.34;102139.59;5047226;28;20440;-68
2021/06/14 00:59:37;;;;;;;4.10;3.70;;;;;;;22.35;45.90;102144.06;5064828;28;20037;-69
2021/06/14 01:02:03;;;;;;;7.05;4.40;;;;;;;22.27;45.89;102144.91;5065080;28;20755;-69
2021/06/14 01:04:28;;;;;;;4.50;4.10;;;;;;;22.31;45.67;102136.94;5065846;28;20043;-69
2021/06/14 01:06:54;;;;;;;5.57;4.03;;;;;;;22.30;45.61;102129.91;5064432;28;20044;-69
2021/06/14 01:09:19;;;;;;;6.13;4.85;;;;;;;22.28;45.80;102130.25;5030462;28;20297;-69
2021/06/14 01:11:53;;;;;;;8.43;4.47;;;;;;;22.29;45.68;102129.16;5062076;28;20454;-69
2021/06/14 01:14:24;;;;;;;;;;;;;;;22.18;45.86;102125.25;5065142;28;20037;-69
2021/06/14 01:17:10;;;;;;;6.75;4.95;;;;;;;22.20;45.75;102114.88;5065403;28;19924;-69
2021/06/14 01:19:46;;;;;;;5.03;4.10;;;;;;;22.17;46.11;102118.22;5049656;28;20055;-70
2021/06/14 01:22:45;;;;;;;5.40;4.20;;;;;;;22.19;45.74;102110.56;5045545;28;20099;-70
2021/06/14 01:25:24;;;;;;;6.97;5.00;;;;;;;22.18;46.10;102111.69;5063171;28;20095;-70
2021/06/14 01:27:52;;;;;;;7.63;4.60;;;;;;;22.17;45.80;102112.00;5047278;28;20040;-70
2021/06/14 01:30:19;;;;;;;5.05;4.47;;;;;;;22.09;46.21;102102.03;5047083;28;20056;-70
2021/06/14 01:32:44;;;;;;;5.25;4.68;;;;;;;22.04;46.16;102108.44;5030935;28;20041;-71
2021/06/14 01:35:11;;;;;;;4.70;4.15;;;;;;;22.07;46.21;102102.38;5046539;28;20036;-71
2021/06/14 01:37:40;;;;;;;6.10;4.47;;;;;;;22.06;46.21;102094.56;5030125;28;20115;-69
2021/06/14 01:40:06;;;;;;;4.80;4.38;;;;;;;22.10;45.90;102093.59;5063038;28;20086;-69
2021/06/14 01:42:32;;;;;;;5.90;4.50;;;;;;;22.04;46.61;102083.28;5065512;28;20062;-69
2021/06/14 01:44:57;;;;;;;4.38;3.97;;;;;;;21.99;46.57;102091.59;5065762;28;20036;-68
2021/06/14 01:47:23;;;;;;;5.20;4.50;;;;;;;22.02;46.56;102088.22;5045808;28;20780;-68
2021/06/14 01:49:48;;;;;;;7.22;4.40;;;;;;;22.03;46.51;102093.31;5067292;28;20032;-68
2021/06/14 01:52:14;;;;;;;7.35;4.63;;;;;;;22.05;46.22;102080.22;5046754;28;20041;-68
2021/06/14 01:54:39;;;;;;;5.22;4.50;;;;;;;22.01;46.62;102078.50;5031668;28;20427;-68
2021/06/14 01:57:05;;;;;;;8.50;4.88;;;;;;;21.96;46.52;102067.88;5033058;28;20205;-68
2021/06/14 01:59:33;;;;;;;6.53;4.63;;;;;;;21.98;46.66;102065.63;5067928;28;20124;-68
2021/06/14 02:01:59;;;;;;;7.55;4.95;;;;;;;21.98;46.38;102060.22;5030078;28;20078;-69
2021/06/14 02:04:24;;;;;;;5.38;4.65;;;;;;;21.94;46.79;102057.38;5065735;28;20048;-69
2021/06/14 02:06:50;;;;;;;4.90;4.38;;;;;;;21.91;46.79;102058.03;5033714;28;20044;-69
2021/06/14 02:09:21;;;;;;;5.80;4.55;;;;;;;21.88;46.55;102053.28;5056170;28;20127;-68
2021/06/14 02:11:53;;;;;;;5.40;4.90;;;;;;;21.87;46.54;102042.78;5048287;28;20079;-68
2021/06/14 02:14:24;;;;;;;5.90;4.10;;;;;;;21.85;46.62;102051.19;5061395;28;20549;-68
2021/06/14 02:16:49;;;;;;;5.03;4.57;;;;;;;21.83;47.10;102048.81;5063426;28;20168;-68
2021/06/14 02:19:15;;;;;;;8.90;4.70;;;;;;;21.84;47.09;102046.91;5046702;28;20390;-68
2021/06/14 02:21:44;;;;;;;6.68;4.55;;;;;;;21.83;46.99;102050.72;5042862;28;20037;-68
2021/06/14 02:24:09;;;;;;;5.88;4.68;;;;;;;21.81;46.82;102047.56;5061322;28;20036;-70
2021/06/14 02:26:42;;;;;;;4.88;4.47;;;;;;;21.79;47.08;102044.38;5045716;28;20052;-71
2021/06/14 02:29:07;;;;;;;5.20;4.70;;;;;;;21.79;47.39;102037.06;5041467;28;20116;-70
2021/06/14 02:31:33;;;;;;;5.15;4.65;;;;;;;21.71;47.24;102035.22;5029675;28;20383;-71
2021/06/14 02:33:59;;;;;;;5.95;5.20;;;;;;;21.72;47.18;102036.78;5046218;28;20032;-70
2021/06/14 02:36:24;;;;;;;5.75;4.70;;;;;;;21.72;46.87;102036.78;5046056;28;20504;-69
2021/06/14 02:38:50;;;;;;;4.97;4.47;;;;;;;21.69;47.49;102033.94;5045643;28;20031;-69
2021/06/14 02:41:16;;;;;;;6.70;4.70;;;;;;;21.67;46.98;102034.25;5047223;28;20039;-70
2021/06/14 02:43:41;;;;;;;10.20;5.90;;;;;;;21.65;47.41;102035.72;5047160;28;20409;-70
2021/06/14 02:46:07;;;;;;;8.05;4.60;;;;;;;21.60;47.20;102039.41;5044361;28;20036;-70
2021/06/14 02:48:33;;;;;;;9.77;5.60;;;;;;;21.66;47.37;102048.13;5045711;28;20133;-69
2021/06/14 02:50:59;;;;;;;7.85;5.60;;;;;;;21.66;47.09;102048.13;5063192;28;20405;-70
2021/06/14 02:53:25;;;;;;;5.50;5.00;;;;;;;21.69;47.21;102048.25;5044349;28;20029;-70
2021/06/14 02:55:54;;;;;;;7.93;4.93;;;;;;;21.70;46.72;102049.84;5045120;28;20741;-70
2021/06/14 02:58:22;;;;;;;5.30;4.90;;;;;;;21.66;47.40;102050.84;5047108;28;20032;-69
2021/06/14 03:00:47;;;;;;;8.77;5.50;;;;;;;21.68;47.10;102033.16;5066100;28;20111;-70
2021/06/14 03:03:13;;;;;;;9.20;4.85;;;;;;;21.71;46.87;102031.69;5048952;28;20036;-70
2021/06/14 03:05:38;;;;;;;6.15;5.10;;;;;;;21.66;47.38;102034.59;5048170;28;20502;-70
2021/06/14 03:08:04;;;;;;;6.00;4.90;;;;;;;21.53;47.58;102030.22;5048480;28;20159;-72
2021/06/14 03:10:30;;;;;;;7.22;5.20;;;;;;;21.53;47.50;102039.09;5046695;28;20029;-71
2021/06/14 03:12:56;;;;;;;7.10;4.93;;;;;;;21.54;47.24;102038.00;5048978;28;20040;-71
2021/06/14 03:15:22;;;;;;;5.45;4.95;;;;;;;21.59;47.35;102040.50;5048652;28;20035;-71
2021/06/14 03:17:48;;;;;;;7.13;5.47;;;;;;;21.55;47.75;102045.00;5030785;28;20025;-71
2021/06/14 03:20:13;;;;;;;5.18;4.68;;;;;;;21.57;47.57;102034.63;5047071;28;20570;-70
2021/06/14 03:22:39;;;;;;;7.72;4.97;;;;;;;21.54;47.68;102029.06;5047873;28;20036;-70
2021/06/14 03:25:05;;;;;;;7.55;5.47;;;;;;;21.55;47.36;102036.09;5048709;28;20020;-70
2021/06/14 03:27:31;;;;;;;6.05;4.88;;;;;;;21.56;47.63;102034.94;5048613;28;20044;-70
2021/06/14 03:29:56;;;;;;;7.03;4.90;;;;;;;21.57;47.50;102037.34;5031949;28;20066;-71
2021/06/14 03:32:22;;;;;;;5.85;5.25;;;;;;;21.57;47.50;102034.63;5045867;28;20037;-70
2021/06/14 03:34:52;;;;;;;8.77;5.72;;;;;;;21.49;47.86;102030.06;5049281;28;20536;-70
2021/06/14 03:37:18;;;;;;;7.38;5.22;;;;;;;21.49;47.80;102029.28;5065861;28;20533;-70
2021/06/14 03:39:43;;;;;;;7.60;4.78;;;;;;;21.49;47.65;102027.38;5047868;28;20040;-70
2021/06/14 03:42:09;;;;;;;5.68;5.18;;;;;;;21.49;47.45;102023.84;5043648;28;20420;-69
2021/06/14 03:44:35;;;;;;;6.57;5.63;;;;;;;21.50;47.40;102025.47;5047205;28;20048;-69
2021/06/14 03:47:00;;;;;;;7.28;5.30;;;;;;;21.42;48.03;102024.34;5066177;28;20106;-69
2021/06/14 03:49:26;;;;;;;5.35;4.85;;;;;;;21.42;47.41;102024.34;5051864;28;20506;-68
2021/06/14 03:51:51;;;;;;;5.55;5.00;;;;;;;21.42;47.98;102018.94;5069187;28;20445;-69
2021/06/14 03:54:17;;;;;;;5.50;4.85;;;;;;;21.40;47.80;102023.09;5087024;28;20053;-69
2021/06/14 03:56:42;;;;;;;6.45;5.53;;;;;;;21.34;48.38;102027.13;5090528;28;20123;-70
2021/06/14 03:59:07;;;;;;;8.18;5.03;;;;;;;21.34;48.12;102036.00;5080377;28;20032;-73
2021/06/14 04:01:33;;;;;;;16.60;5.45;;;;;;;21.35;48.64;102026.00;5035526;28;20051;-72
2021/06/14 04:06:27;;;;;;;12.38;5.68;;;;;;;21.36;47.98;102039.19;5077551;28;20509;-69
2021/06/14 04:08:53;;;;;;;12.40;6.10;;;;;;;21.38;48.07;102036.97;5043010;28;20072;-69
2021/06/14 04:11:18;;;;;;;8.98;5.35;;;;;;;21.32;48.28;102037.44;5074133;28;20048;-69
2021/06/14 04:13:44;;;;;;;9.65;5.80;;;;;;;21.26;48.64;102037.63;5056207;28;20032;-67
2021/06/14 04:16:10;;;;;;;9.88;5.50;;;;;;;21.34;48.37;102044.13;5055659;28;20486;-68
2021/06/14 04:18:35;;;;;;;9.68;6.28;;;;;;;21.21;48.57;102040.53;5054036;28;20032;-68
2021/06/14 04:21:00;;;;;;;9.80;5.60;;;;;;;21.19;48.58;102042.75;5055364;28;20039;-68
2021/06/14 04:23:26;;;;;;;8.88;5.53;;;;;;;21.15;48.98;102041.00;5071174;28;20041;-68
2021/06/14 04:25:51;;;;;;;7.85;5.60;;;;;;;21.19;48.64;102037.34;5053648;28;20066;-68
2021/06/14 04:28:17;;;;;;;10.07;5.63;;;;;;;21.21;48.73;102034.31;5077388;28;20311;-68
2021/06/14 04:30:42;;;;;;;8.38;5.90;;;;;;;21.17;49.28;102027.97;5072872;28;20439;-67
2021/06/14 04:33:08;;;;;;;8.55;5.45;;;;;;;21.20;48.76;102032.75;5061808;28;20042;-68
2021/06/14 04:35:33;;;;;;;10.93;5.90;;;;;;;21.15;48.82;102028.28;5076576;28;20043;-68
2021/06/14 04:37:58;;;;;;;6.40;5.40;;;;;;;21.07;49.40;102018.31;5086891;28;20028;-68
2021/06/14 04:40:24;;;;;;;9.57;5.22;;;;;;;21.10;49.16;102025.78;5062162;28;20044;-68
2021/06/14 04:42:49;;;;;;;5.90;5.22;;;;;;;21.19;48.93;102018.44;5061830;28;20495;-67
2021/06/14 04:45:15;;;;;;;7.05;5.75;;;;;;;21.18;48.92;102022.25;5077291;28;20493;-67
2021/06/14 04:47:40;;;;;;;6.88;5.70;;;;;;;21.15;49.42;102019.38;5060166;28;20063;-67
2021/06/14 04:50:06;;;;;;;9.57;5.40;;;;;;;21.05;49.64;102014.31;5060093;28;20032;-67
2021/06/14 04:52:32;;;;;;;11.68;5.53;;;;;;;21.09;49.42;102020.69;5073624;28;20110;-67
2021/06/14 04:54:57;;;;;;;7.70;6.10;;;;;;;20.89;50.40;102022.16;5039191;28;20029;-66
2021/06/14 04:57:23;;;;;;;7.97;6.03;;;;;;;20.83;50.73;102022.63;5057427;28;20044;-66
2021/06/14 04:59:48;;;;;;;8.30;6.00;;;;;;;20.81;50.57;102017.56;5052251;28;20044;-66
2021/06/14 05:02:14;;;;;;;7.75;5.97;;;;;;;20.78;50.89;102026.31;5051424;28;20520;-67
2021/06/14 05:04:39;;;;;;;10.73;5.65;;;;;;;20.79;50.65;102033.31;5051246;28;20086;-66
2021/06/14 05:07:05;;;;;;;9.43;6.40;;;;;;;20.80;50.80;102036.78;5034197;28;20028;-69
2021/06/14 05:09:30;;;;;;;7.25;5.97;;;;;;;20.79;51.39;102035.22;5031782;28;20477;-69
2021/06/14 05:11:56;;;;;;;13.43;6.28;;;;;;;20.77;51.92;102034.72;5051133;28;20041;-67
2021/06/14 05:14:21;;;;;;;21.25;7.28;;;;;;;20.82;52.30;102037.28;5032130;28;20175;-67
2021/06/14 05:16:47;;;;;;;11.18;6.15;;;;;;;20.94;51.30;102042.78;5035911;28;20047;-69
2021/06/14 05:19:12;;;;;;;11.23;6.20;;;;;;;20.88;51.53;102041.38;5035340;28;20047;-67
2021/06/14 05:21:38;;;;;;;9.85;6.25;;;;;;;20.92;51.45;102040.44;5033722;28;20071;-67
2021/06/14 05:24:04;;;;;;;9.20;5.88;;;;;;;20.83;51.57;102034.25;5033616;28;20044;-67
2021/06/14 05:26:29;;;;;;;9.80;6.35;;;;;;;20.78;52.09;102036.31;5035043;28;20118;-67
2021/06/14 05:28:55;;;;;;;10.93;6.22;;;;;;;20.72;52.54;102040.28;5028458;28;20502;-67
2021/06/14 05:31:20;;;;;;;7.22;6.07;;;;;;;20.72;52.59;102035.69;5069727;28;20142;-67
2021/06/14 05:33:46;;;;;;;10.07;6.40;;;;;;;20.75;52.76;102040.44;5046219;28;20033;-66
2021/06/14 05:36:11;;;;;;;12.85;5.78;;;;;;;20.76;52.24;102042.06;5068409;28;20028;-67
2021/06/14 05:38:37;;;;;;;11.35;6.50;;;;;;;20.70;52.87;102035.22;5031943;28;20517;-67
2021/06/14 05:41:03;;;;;;;9.40;6.22;;;;;;;20.72;52.75;102033.00;5051144;28;20397;-67
2021/06/14 05:43:28;;;;;;;10.32;6.38;;;;;;;20.79;51.95;102021.69;5032369;28;20468;-66
2021/06/14 05:45:54;;;;;;;8.45;6.25;;;;;;;20.92;51.95;102007.19;5032199;28;20040;-67
2021/06/14 05:48:19;;;;;;;11.88;6.70;;;;;;;20.90;51.75;102010.22;5063395;28;20040;-67
2021/06/14 05:50:44;;;;;;;22.33;7.18;;;;;;;20.90;51.51;101998.63;5064974;28;20096;-68
2021/06/14 05:53:10;;;;;;;17.42;7.10;;;;;;;21.01;51.15;101997.94;5062945;28;20045;-67
2021/06/14 05:55:35;;;;;;;22.83;7.22;;;;;;;21.00;51.22;102001.78;5045944;28;20582;-67
2021/06/14 05:58:01;;;;;;;16.40;6.57;;;;;;;20.85;52.23;101999.56;5032561;28;20643;-68
2021/06/14 06:00:26;;;;;;;17.00;7.97;;;;;;;20.88;52.01;101998.13;5030749;28;20055;-67
2021/06/14 06:02:51;;;;;;;14.88;6.88;;;;;;;20.78;52.43;101993.88;5046951;28;20036;-67
2021/06/14 06:05:17;;;;;;;21.35;7.65;;;;;;;20.79;52.10;101990.09;5048132;28;20324;-66
2021/06/14 06:07:42;;;;;;;26.73;7.88;;;;;;;20.77;51.87;101986.88;5047640;28;20653;-67
2021/06/14 06:10:09;;;;;;;22.00;7.47;;;;;;;20.82;51.93;101991.34;5043525;28;20033;-66
2021/06/14 06:12:35;;;;;;;25.75;8.23;;;;;;;20.89;51.83;101991.63;5048215;28;20494;-69
2021/06/14 06:15:01;;;;;;;35.88;8.07;;;;;;;20.95;51.15;101988.44;5035381;28;20164;-68
2021/06/14 06:17:28;;;;;;;27.27;8.18;;;;;;;20.95;51.07;101993.84;5065381;28;20139;-67
2021/06/14 06:19:53;;;;;;;27.45;7.47;;;;;;;21.01;51.01;101997.16;5053416;28;20032;-67
2021/06/14 06:22:18;;;;;;;19.42;7.57;;;;;;;21.00;50.92;101998.28;5066138;28;20264;-72
2021/06/14 06:24:44;;;;;;;21.88;7.25;;;;;;;20.97;51.14;101997.00;5051119;28;20040;-71
2021/06/14 06:27:09;;;;;;;21.63;7.35;;;;;;;20.99;51.25;102002.09;5086834;28;20040;-72
2021/06/14 06:29:35;;;;;;;20.10;7.55;;;;;;;21.00;51.37;101999.06;5050486;28;20426;-71
2021/06/14 06:32:00;;;;;;;23.48;6.93;;;;;;;20.99;51.25;101991.28;5085324;28;20035;-72
2021/06/14 06:34:26;;;;;;;19.20;7.68;;;;;;;21.04;51.15;101982.97;5048524;28;20819;-72
2021/06/14 06:36:51;;;;;;;17.30;7.15;;;;;;;21.02;51.35;101972.50;5049229;28;20314;-72
2021/06/14 06:39:16;;;;;;;19.27;7.88;;;;;;;21.05;51.22;101965.66;5083145;28;20791;-72
2021/06/14 06:41:42;;;;;;;15.60;6.63;;;;;;;21.02;51.62;101966.31;5045659;28;20461;-72
2021/06/14 06:44:09;;;;;;;13.52;7.30;;;;;;;21.01;51.50;101964.75;5068899;28;20355;-72
2021/06/14 06:46:34;;;;;;;25.25;7.97;;;;;;;21.06;51.38;101962.66;5068353;28;20047;-71
2021/06/14 06:49:00;;;;;;;15.65;7.03;;;;;;;21.06;51.40;101957.25;5075786;28;20040;-71
2021/06/14 06:51:25;;;;;;;15.95;8.10;;;;;;;21.04;51.74;101966.75;5090368;28;20032;-71
2021/06/14 06:54:11;;;;;;;11.13;7.47;;;;;;;21.04;51.64;101967.56;5088277;28;20558;-72
2021/06/14 06:56:47;;;;;;;15.68;7.53;;;;;;;21.05;51.67;101960.25;5081590;28;20044;-71
2021/06/14 06:59:12;;;;;;;18.00;6.95;;;;;;;21.08;51.27;101956.94;5046853;28;20444;-70
2021/06/14 07:01:38;;;;;;;15.68;7.45;;;;;;;21.05;51.61;101955.66;5048569;28;20126;-71
2021/06/14 07:04:05;;;;;;;18.65;7.20;;;;;;;21.03;52.17;101946.28;5088071;28;20100;-70
2021/06/14 07:06:31;;;;;;;15.40;7.45;;;;;;;21.04;51.75;101950.53;5050678;28;20040;-76
2021/06/14 07:08:57;;;;;;;13.85;7.90;;;;;;;21.05;52.29;101955.66;5069678;28;20112;-73
2021/06/14 07:11:23;;;;;;;21.40;7.93;;;;;;;21.12;51.09;101955.19;5070391;28;20043;-73
2021/06/14 07:13:49;;;;;;;11.10;7.00;;;;;;;21.12;52.29;101949.78;5037002;28;20053;-75
2021/06/14 07:16:14;;;;;;;13.23;6.72;;;;;;;21.18;51.69;101945.75;5054758;28;20046;-74
2021/06/14 07:18:40;;;;;;;12.18;7.57;;;;;;;21.16;51.97;101948.78;5033725;28;20047;-74
2021/06/14 07:21:05;;;;;;;9.88;6.70;;;;;;;21.17;52.04;101944.19;5030878;28;20070;-77
2021/06/14 07:23:31;;;;;;;12.85;6.90;;;;;;;21.19;52.25;101926.50;5045288;28;20033;-77
2021/06/14 07:25:56;;;;;;;10.80;6.75;;;;;;;21.29;52.44;101928.03;5045546;28;20048;-71
2021/06/14 07:28:22;;;;;;;13.05;6.30;;;;;;;21.34;52.80;101919.72;5045394;28;20036;-72
2021/06/14 07:30:50;;;;;;;11.98;7.20;;;;;;;21.40;52.52;101912.22;5045665;28;20212;-69
2021/06/14 07:33:15;;;;;;;11.95;6.35;;;;;;;21.46;51.65;101906.31;5027896;28;20059;-70
2021/06/14 07:35:41;;;;;;;9.77;5.80;;;;;;;21.51;52.48;101902.59;5028850;28;20458;-69
2021/06/14 07:38:06;;;;;;;8.48;6.80;;;;;;;21.47;52.20;101897.09;5045009;28;20036;-67
2021/06/14 07:40:32;;;;;;;13.40;6.53;;;;;;;21.47;53.02;101890.88;5051198;28;20490;-68
2021/06/14 07:42:57;;;;;;;12.57;6.07;;;;;;;21.51;51.71;101873.66;5048698;28;20044;-68
2021/06/14 07:45:25;;;;;;;12.88;6.50;;;;;;;21.52;53.35;101880.66;5040342;28;20033;-68
2021/06/14 07:47:52;;;;;;;14.05;6.43;;;;;;;21.52;51.86;101880.66;5061770;28;20363;-68
2021/06/14 07:50:17;;;;;;;8.15;5.78;;;;;;;21.63;53.49;101884.56;5048131;28;20112;-68
2021/06/14 07:52:43;;;;;;;13.88;6.40;;;;;;;21.74;52.48;101883.03;5031388;28;20060;-68
2021/06/14 07:55:10;;;;;;;9.55;5.47;;;;;;;21.73;52.41;101880.63;5053027;28;20032;-70
2021/06/14 07:57:35;;;;;;;8.15;5.65;;;;;;;21.81;52.45;101877.88;5026815;28;20040;-67
2021/06/14 08:00:01;;;;;;;7.22;4.50;;;;;;;21.80;52.29;101889.81;5043382;28;20108;-66
2021/06/14 08:02:26;;;;;;;13.93;5.30;;;;;;;21.89;51.35;101894.38;5041793;28;20509;-67
2021/06/14 08:04:51;;;;;;;8.07;5.40;;;;;;;21.91;51.13;101897.56;5060932;28;20039;-68
2021/06/14 08:07:17;;;;;;;7.75;4.88;;;;;;;21.89;50.46;101897.09;5025848;28;20526;-66
2021/06/14 08:09:44;;;;;;;10.90;5.43;;;;;;;21.79;51.01;101899.06;5063480;28;20443;-68
2021/06/14 08:12:09;;;;;;;12.82;5.65;;;;;;;21.81;51.20;101898.72;5065030;28;20024;-67
2021/06/14 08:14:35;;;;;;;9.35;5.03;;;;;;;21.76;51.17;101901.63;5052296;28;20975;-68
2021/06/14 08:17:03;;;;;;;10.10;5.18;;;;;;;21.78;51.39;101893.97;5053508;28;20039;-67
2021/06/14 08:19:44;;;;;;;7.75;5.18;;;;;;;21.77;51.42;101889.69;5072510;28;20177;-66
2021/06/14 08:25:05;;;;;;;6.95;4.85;;;;;;;21.90;51.08;101877.81;5042162;28;20035;-67
2021/06/14 08:27:32;;;;;;;8.95;5.03;;;;;;;21.80;51.51;101873.56;5074842;28;20121;-67
2021/06/14 08:29:58;;;;;;;8.57;5.30;;;;;;;21.76;51.05;101882.69;5084217;28;20058;-67
2021/06/14 08:32:23;;;;;;;12.82;5.20;;;;;;;21.78;50.68;101889.34;5068105;28;20036;-67
2021/06/14 08:34:49;;;;;;;8.50;5.82;;;;;;;21.97;50.74;101880.78;5085793;28;20047;-67
2021/06/14 08:37:14;;;;;;;8.18;5.80;;;;;;;22.11;50.00;101888.59;5088967;28;20570;-67
2021/06/14 08:39:39;;;;;;;9.45;5.68;;;;;;;22.06;50.74;101880.69;5085815;28;20481;-66
2021/06/14 08:42:05;;;;;;;10.35;5.75;;;;;;;21.93;50.13;101879.88;5085602;28;20111;-69
2021/06/14 08:44:31;;;;;;;10.73;5.68;;;;;;;21.98;50.58;101882.38;5090310;28;20127;-70
2021/06/14 08:46:57;;;;;;;10.15;5.60;;;;;;;22.10;50.40;101873.50;5070099;28;20043;-70
2021/06/14 08:49:23;;;;;;;7.68;5.55;;;;;;;22.19;50.33;101864.16;5087629;28;20122;-69
2021/06/14 08:51:48;;;;;;;10.35;6.32;;;;;;;22.37;48.58;101859.34;5068093;28;20119;-70
2021/06/14 08:54:14;;;;;;;11.43;6.38;;;;;;;22.49;46.84;101858.59;5067042;28;20085;-69
2021/06/14 08:56:39;;;;;;;13.38;6.30;;;;;;;22.36;48.29;101865.88;5072949;28;20035;-69
2021/06/14 08:59:05;;;;;;;13.93;7.13;;;;;;;22.31;47.73;101858.78;5076217;28;20047;-70
2021/06/14 09:01:30;;;;;;;9.35;6.63;;;;;;;22.26;49.03;101859.00;5056642;28;20268;-69
2021/06/14 09:03:56;;;;;;;9.88;6.03;;;;;;;22.26;48.92;101869.03;5088503;28;20024;-68
2021/06/14 09:06:21;;;;;;;8.73;5.90;;;;;;;22.18;49.23;101864.50;5068621;28;20040;-69
2021/06/14 09:09:09;;;;;;;8.88;6.38;;;;;;;22.20;49.57;101867.66;5068603;28;20771;-68
2021/06/14 09:11:36;;;;;;;7.35;6.00;;;;;;;22.18;49.54;101865.28;5087271;28;20101;-69
2021/06/14 09:14:02;;;;;;;16.02;6.60;;;;;;;22.27;49.59;101865.19;5053710;28;20039;-69
2021/06/14 09:16:33;;;;;;;12.40;8.07;;;;;;;22.46;48.82;101861.97;5052654;28;20040;-69
2021/06/14 09:18:59;;;;;;;11.60;7.45;;;;;;;22.20;50.03;101859.53;5067241;28;20047;-70
2021/06/14 09:21:28;;;;;;;12.77;7.35;;;;;;;22.20;49.81;101859.53;5068829;28;20412;-69
2021/06/14 09:23:56;;;;;;;15.98;10.30;;;;;;;22.60;47.50;101854.28;5085419;28;20036;-70
2021/06/14 09:26:31;;;;;;;17.10;9.50;;;;;;;22.55;47.79;101852.59;5068481;28;20051;-70
2021/06/14 09:29:04;;;;;;;11.90;9.20;;;;;;;22.44;48.89;101859.56;5067977;28;20072;-71
2021/06/14 09:31:41;;;;;;;18.08;10.45;;;;;;;22.70;48.58;101854.69;5069634;28;20117;-71
2021/06/14 09:34:07;;;;;;;18.83;10.98;;;;;;;22.78;48.35;101851.06;5085031;28;20063;-67
2021/06/14 09:36:33;;;;;;;18.08;10.40;;;;;;;22.87;48.68;101864.47;5068421;28;20051;-66
2021/06/14 09:39:06;;;;;;;15.75;9.30;;;;;;;23.09;45.92;101855.13;5085460;28;21108;-67
2021/06/14 09:41:42;;;;;;;19.63;9.30;;;;;;;22.98;46.47;101860.19;5085225;28;20660;-66
2021/06/14 09:44:07;;;;;;;16.05;9.00;;;;;;;22.98;47.03;101854.75;5085310;28;20494;-67
2021/06/14 09:46:33;;;;;;;13.02;8.57;;;;;;;22.86;47.88;101852.06;5061337;28;20035;-67
2021/06/14 09:49:01;;;;;;;12.85;9.02;;;;;;;22.98;46.29;101855.56;5087820;28;20544;-67
2021/06/14 09:51:26;;;;;;;17.15;9.50;;;;;;;22.99;46.92;101850.94;5084641;28;20043;-73
2021/06/14 09:53:53;;;;;;;21.25;8.75;;;;;;;23.10;45.35;101854.75;5051869;28;20043;-73
2021/06/14 09:56:23;;;;;;;16.38;9.80;;;;;;;23.16;44.34;101858.03;5049575;28;20036;-71
2021/06/14 09:58:50;;;;;;;13.82;9.30;;;;;;;23.15;43.84;101856.44;5082971;28;20457;-71
2021/06/14 10:01:29;;;;;;;17.05;9.50;;;;;;;23.10;44.51;101843.91;5083776;28;20135;-71
2021/06/14 10:03:57;;;;;;;15.38;9.05;;;;;;;23.08;45.38;101848.09;5050389;28;20032;-72
2021/06/14 10:06:29;;;;;;;14.70;8.85;;;;;;;23.15;45.07;101830.13;5083457;28;20047;-71
2021/06/14 10:08:55;;;;;;;15.88;8.57;;;;;;;23.19;44.31;101831.03;5059152;28;20033;-72
2021/06/14 10:11:20;;;;;;;11.27;7.45;;;;;;;23.36;42.93;101838.13;5074173;28;20043;-69
2021/06/14 10:13:47;;;;;;;14.43;7.60;;;;;;;23.32;44.04;101848.06;5047610;28;20730;-71
2021/06/14 10:16:21;;;;;;;11.93;8.68;;;;;;;23.54;42.64;101842.16;5047162;28;20108;-70
2021/06/14 10:18:57;;;;;;;9.13;7.90;;;;;;;23.29;43.55;101838.69;5061646;28;20047;-72
2021/06/14 10:21:37;;;;;;;12.35;7.95;;;;;;;23.09;44.99;101825.28;5082054;28;20036;-69
2021/06/14 10:24:07;;;;;;;10.65;7.55;;;;;;;22.95;45.01;101831.06;5050041;28;20074;-69
2021/06/14 10:26:34;;;;;;;17.38;7.82;;;;;;;23.20;44.27;101826.38;5082917;28;20051;-70
2021/06/14 10:28:59;;;;;;;11.90;7.07;;;;;;;23.41;42.80;101830.56;5063541;28;20603;-69
2021/06/14 10:31:25;;;;;;;14.38;7.55;;;;;;;23.53;42.36;101833.22;5046082;28;20040;-68
2021/06/14 10:33:51;;;;;;;14.82;7.03;;;;;;;23.29;43.38;101827.03;5062098;28;20417;-68
2021/06/14 10:36:17;;;;;;;10.30;6.53;;;;;;;23.36;43.37;101828.03;5066623;28;20109;-71
2021/06/14 10:38:46;;;;;;;12.00;7.45;;;;;;;23.56;42.37;101829.00;5046731;28;20083;-68
2021/06/14 10:41:12;;;;;;;12.60;6.53;;;;;;;23.66;42.33;101825.81;5079301;28;20046;-70
2021/06/14 10:43:38;;;;;;;9.50;6.97;;;;;;;23.50;43.07;101817.63;5079763;28;20036;-70
2021/06/14 10:46:04;;;;;;;12.60;7.50;;;;;;;23.42;43.12;101818.56;5079052;28;20526;-70
2021/06/14 10:48:33;;;;;;;13.90;9.00;;;;;;;23.62;41.87;101808.66;5041361;28;20044;-68
2021/06/14 10:51:00;;;;;;;11.77;7.45;;;;;;;23.65;41.52;101807.97;5061141;28;20032;-70
2021/06/14 10:53:30;;;;;;;12.35;7.20;;;;;;;23.72;41.74;101808.13;5060113;28;20032;-70
2021/06/14 10:56:02;;;;;;;13.18;6.63;;;;;;;23.81;41.97;101803.34;5058978;28;20059;-71
2021/06/14 10:58:30;;;;;;;11.88;6.18;;;;;;;23.74;42.20;101805.09;5061393;28;20051;-71
2021/06/14 11:01:01;;;;;;;10.60;5.68;;;;;;;23.79;42.34;101811.06;5064637;28;20119;-71
2021/06/14 11:03:37;;;;;;;10.93;5.90;;;;;;;23.91;41.53;101807.47;5079597;28;20409;-70
2021/06/14 11:06:16;;;;;;;14.07;6.00;;;;;;;23.85;42.11;101801.50;5032682;28;20040;-69
2021/06/14 11:08:41;;;;;;;9.15;5.15;;;;;;;23.80;42.72;101804.47;5069506;28;20041;-70
2021/06/14 11:11:08;;;;;;;14.73;6.05;;;;;;;24.05;42.75;101797.78;5061681;28;20123;-70
2021/06/14 11:13:34;;;;;;;8.75;5.63;;;;;;;24.10;42.68;101799.47;5069923;28;20035;-69
2021/06/14 11:16:34;;;;;;;8.55;5.53;;;;;;;24.16;42.85;101807.03;5057066;28;20027;-73
2021/06/14 11:19:04;;;;;;;9.70;5.40;;;;;;;24.23;42.45;101802.91;5081237;28;20089;-70
2021/06/14 11:21:29;;;;;;;14.10;6.10;;;;;;;24.26;41.95;101803.00;5083302;28;20256;-70
2021/06/14 11:24:04;;;;;;;11.70;5.57;;;;;;;24.09;43.04;101801.41;5050085;28;20379;-70
2021/06/14 11:26:30;;;;;;;14.00;5.65;;;;;;;24.17;42.83;101811.31;5066536;28;20618;-69